createdAt,value
2023-03-05T00:00:51.793Z,3.2
2023-03-05T00:01:51.739Z,3.3
2023-03-05T00:02:51.828Z,3.3
2023-03-05T00:03:51.823Z,3.3
2023-03-05T00:04:51.842Z,3.3
2023-03-05T00:05:51.750Z,3.3
2023-03-05T00:06:51.729Z,3.4
2023-03-05T00:07:51.734Z,3.4
2023-03-05T00:08:51.726Z,3.3
2023-03-05T00:09:51.753Z,3.4
2023-03-05T00:10:51.767Z,3.5
2023-03-05T00:11:51.731Z,3.5
2023-03-05T00:12:51.733Z,3.5
2023-03-05T00:13:51.741Z,3.4
2023-03-05T00:14:51.782Z,3.3
2023-03-05T00:15:51.830Z,3.3
2023-03-05T00:16:51.748Z,3.3
2023-03-05T00:17:51.722Z,3.3
2023-03-05T00:18:51.737Z,3.3
2023-03-05T00:19:51.771Z,3.4
2023-03-05T00:20:51.763Z,3.4
2023-03-05T00:21:51.744Z,3.3
2023-03-05T00:22:51.738Z,3.3
2023-03-05T00:23:51.717Z,3.4
2023-03-05T00:24:51.733Z,3.4
2023-03-05T00:25:51.740Z,3.5
2023-03-05T00:26:51.724Z,3.4
2023-03-05T00:27:51.752Z,3.5
2023-03-05T00:28:51.750Z,3.4
2023-03-05T00:29:51.719Z,3.4
2023-03-05T00:30:51.767Z,3.4
2023-03-05T00:31:51.746Z,3.4
2023-03-05T00:32:51.735Z,3.5
2023-03-05T00:33:51.729Z,3.5
2023-03-05T00:34:51.723Z,3.4
2023-03-05T00:35:51.934Z,3.4
2023-03-05T00:36:51.736Z,3.4
2023-03-05T00:37:51.737Z,3.4
2023-03-05T00:38:51.735Z,3.5
2023-03-05T00:39:51.735Z,3.5
2023-03-05T00:40:51.765Z,3.4
2023-03-05T00:41:51.720Z,3.5
2023-03-05T00:42:51.763Z,3.5
2023-03-05T00:43:51.740Z,3.4
2023-03-05T00:44:51.736Z,3.5
2023-03-05T00:45:51.761Z,3.5
2023-03-05T00:46:51.734Z,3.5
2023-03-05T00:47:51.742Z,3.4
2023-03-05T00:48:51.733Z,3.5
2023-03-05T00:49:51.741Z,3.6
2023-03-05T00:50:51.727Z,3.6
2023-03-05T00:51:51.716Z,3.5
2023-03-05T00:52:51.725Z,3.5
2023-03-05T00:53:51.731Z,3.6
2023-03-05T00:54:51.873Z,3.5
2023-03-05T00:55:51.726Z,3.5
2023-03-05T00:56:51.736Z,3.6
2023-03-05T00:57:51.751Z,3.5
2023-03-05T00:58:51.749Z,3.5
2023-03-05T00:59:51.739Z,3.5
2023-03-05T01:00:51.740Z,3.6
2023-03-05T01:01:51.812Z,3.5
2023-03-05T01:03:51.769Z,3.6
2023-03-05T01:04:51.750Z,3.7
2023-03-05T01:05:51.754Z,3.6
2023-03-05T01:06:51.732Z,3.6
2023-03-05T01:07:51.713Z,3.6
2023-03-05T01:08:51.727Z,3.6
2023-03-05T01:09:51.710Z,3.6
2023-03-05T01:11:51.696Z,3.7
2023-03-05T01:12:51.706Z,3.6
2023-03-05T01:13:51.716Z,3.6
2023-03-05T01:14:51.692Z,3.6
2023-03-05T01:15:51.722Z,3.6
2023-03-05T01:16:51.701Z,3.5
2023-03-05T01:17:51.697Z,3.6
2023-03-05T01:18:51.707Z,3.6
2023-03-05T01:19:51.697Z,3.6
2023-03-05T01:20:51.692Z,3.5
2023-03-05T01:21:51.700Z,3.5
2023-03-05T01:22:51.690Z,3.5
2023-03-05T01:23:51.687Z,3.6
2023-03-05T01:24:51.683Z,3.5
2023-03-05T01:25:51.703Z,3.6
2023-03-05T01:26:51.684Z,3.5
2023-03-05T01:27:51.675Z,3.5
2023-03-05T01:28:51.711Z,3.5
2023-03-05T01:29:51.704Z,3.4
2023-03-05T01:30:51.709Z,3.4
2023-03-05T01:31:51.847Z,3.4
2023-03-05T01:32:51.671Z,3.4
2023-03-05T01:33:51.701Z,3.4
2023-03-05T01:34:51.684Z,3.3
2023-03-05T01:35:51.727Z,3.4
2023-03-05T01:36:51.705Z,3.2
2023-03-05T01:37:51.692Z,3.4
2023-03-05T01:38:51.700Z,3.4
2023-03-05T01:39:51.680Z,3.4
2023-03-05T01:40:51.693Z,3.5
2023-03-05T01:41:51.680Z,3.5
2023-03-05T01:42:51.708Z,3.4
2023-03-05T01:43:51.703Z,3.4
2023-03-05T01:44:51.699Z,3.5
2023-03-05T01:45:51.751Z,3.3
2023-03-05T01:46:51.710Z,3.3
2023-03-05T01:47:51.715Z,3.4
2023-03-05T01:48:51.690Z,3.3
2023-03-05T01:49:51.689Z,3.3
2023-03-05T01:50:51.746Z,3.2
2023-03-05T01:51:51.684Z,3.3
2023-03-05T01:52:51.685Z,3.3
2023-03-05T01:53:51.686Z,3.3
2023-03-05T01:54:51.693Z,3.2
2023-03-05T01:55:51.679Z,3.3
2023-03-05T01:56:51.691Z,3.3
2023-03-05T01:57:51.708Z,3.4
2023-03-05T01:58:51.700Z,3.4
2023-03-05T01:59:51.683Z,3.3
2023-03-05T02:00:51.758Z,3.2
2023-03-05T02:01:51.687Z,3.2
2023-03-05T02:02:51.699Z,3.2
2023-03-05T02:03:51.802Z,3.3
2023-03-05T02:04:51.696Z,3.3
2023-03-05T02:05:51.669Z,3.4
2023-03-05T02:06:51.697Z,3.3
2023-03-05T02:07:51.675Z,3.3
2023-03-05T02:08:51.717Z,3.3
2023-03-05T02:09:51.688Z,3.3
2023-03-05T02:10:51.713Z,3.3
2023-03-05T02:11:51.688Z,3.3
2023-03-05T02:12:51.673Z,3.3
2023-03-05T02:13:51.706Z,3.4
2023-03-05T02:14:51.685Z,3.4
2023-03-05T02:15:51.698Z,3.3
2023-03-05T02:16:51.808Z,3.2
2023-03-05T02:17:51.685Z,3.2
2023-03-05T02:18:51.686Z,3.1
2023-03-05T02:19:51.675Z,3.1
2023-03-05T02:20:51.709Z,3.1
2023-03-05T02:21:51.693Z,3.2
2023-03-05T02:22:51.696Z,3.2
2023-03-05T02:23:51.703Z,3.3
2023-03-05T02:24:51.701Z,3.3
2023-03-05T02:25:51.674Z,3.2
2023-03-05T02:26:51.684Z,3.2
2023-03-05T02:27:51.700Z,3.2
2023-03-05T02:28:51.834Z,3.2
2023-03-05T02:29:51.685Z,3.2
2023-03-05T02:30:51.684Z,3.1
2023-03-05T02:31:51.735Z,3.2
2023-03-05T02:32:51.696Z,3.1
2023-03-05T02:33:51.693Z,3.1
2023-03-05T02:34:51.786Z,3.1
2023-03-05T02:35:51.724Z,3.1
2023-03-05T02:36:51.687Z,3.1
2023-03-05T02:37:51.695Z,3.1
2023-03-05T02:38:51.684Z,3.2
2023-03-05T02:39:51.671Z,3.2
2023-03-05T02:40:51.684Z,3.1
2023-03-05T02:41:51.696Z,3.2
2023-03-05T02:42:51.680Z,3.2
2023-03-05T02:43:51.697Z,3.2
2023-03-05T02:44:51.691Z,3.2
2023-03-05T02:45:51.715Z,3.2
2023-03-05T02:46:51.691Z,3.2
2023-03-05T02:47:51.678Z,3.2
2023-03-05T02:48:51.686Z,3.2
2023-03-05T02:49:51.689Z,3.1
2023-03-05T02:50:51.685Z,3.1
2023-03-05T02:51:51.692Z,3.1
2023-03-05T02:52:51.701Z,3.1
2023-03-05T02:53:51.670Z,3.1
2023-03-05T02:54:51.687Z,3.1
2023-03-05T02:56:51.686Z,3
2023-03-05T02:57:51.681Z,3.1
2023-03-05T02:58:51.699Z,3.1
2023-03-05T02:59:51.759Z,3.1
2023-03-05T03:00:51.756Z,2.9
2023-03-05T03:01:51.666Z,3
2023-03-05T03:02:51.728Z,3
2023-03-05T03:03:51.682Z,3.1
2023-03-05T03:04:51.676Z,3
2023-03-05T03:05:51.677Z,3
2023-03-05T03:06:51.701Z,3
2023-03-05T03:07:51.689Z,3
2023-03-05T03:08:51.703Z,3
2023-03-05T03:09:51.670Z,3
2023-03-05T03:10:51.684Z,3
2023-03-05T03:11:51.683Z,3
2023-03-05T03:12:51.688Z,3.1
2023-03-05T03:13:51.686Z,3.1
2023-03-05T03:14:51.683Z,3.1
2023-03-05T03:15:51.689Z,3.1
2023-03-05T03:16:51.834Z,3.1
2023-03-05T03:17:51.687Z,3
2023-03-05T03:18:51.672Z,3.1
2023-03-05T03:19:51.683Z,3.1
2023-03-05T03:20:51.695Z,3
2023-03-05T03:21:51.681Z,2.9
2023-03-05T03:22:51.685Z,3
2023-03-05T03:23:51.674Z,3
2023-03-05T03:24:51.686Z,3
2023-03-05T03:25:51.689Z,2.9
2023-03-05T03:26:51.695Z,2.9
2023-03-05T03:27:51.694Z,3
2023-03-05T03:28:51.757Z,2.9
2023-03-05T03:29:51.670Z,2.9
2023-03-05T03:30:51.769Z,2.9
2023-03-05T03:31:51.687Z,2.9
2023-03-05T03:32:51.689Z,3
2023-03-05T03:33:51.724Z,2.9
2023-03-05T03:34:51.690Z,2.9
2023-03-05T03:35:51.812Z,2.8
2023-03-05T03:36:51.683Z,2.9
2023-03-05T03:37:51.705Z,2.9
2023-03-05T03:38:51.686Z,3
2023-03-05T03:39:51.692Z,3
2023-03-05T03:40:51.690Z,3
2023-03-05T03:41:51.704Z,3
2023-03-05T03:42:51.682Z,3
2023-03-05T03:43:51.727Z,3.1
2023-03-05T03:44:51.687Z,3
2023-03-05T03:45:51.711Z,3
2023-03-05T03:46:51.675Z,2.8
2023-03-05T03:47:51.697Z,2.8
2023-03-05T03:48:51.682Z,2.8
2023-03-05T03:49:51.682Z,2.9
2023-03-05T03:50:51.675Z,2.9
2023-03-05T03:51:51.685Z,2.9
2023-03-05T03:52:51.687Z,2.9
2023-03-05T03:53:51.718Z,3
2023-03-05T03:54:51.679Z,3
2023-03-05T03:55:51.868Z,3
2023-03-05T03:56:51.696Z,3
2023-03-05T03:57:51.682Z,3
2023-03-05T03:58:51.868Z,3
2023-03-05T03:59:51.713Z,2.8
2023-03-05T04:00:51.690Z,2.9
2023-03-05T04:01:51.701Z,2.8
2023-03-05T04:02:51.844Z,2.9
2023-03-05T04:03:51.706Z,2.8
2023-03-05T04:04:51.702Z,2.9
2023-03-05T04:05:51.692Z,2.9
2023-03-05T04:06:51.728Z,2.9
2023-03-05T04:07:51.703Z,2.9
2023-03-05T04:09:51.678Z,2.8
2023-03-05T04:10:51.680Z,2.8
2023-03-05T04:11:51.722Z,2.9
2023-03-05T04:12:51.678Z,2.9
2023-03-05T04:13:51.685Z,2.9
2023-03-05T04:14:51.684Z,2.8
2023-03-05T04:15:51.787Z,2.8
2023-03-05T04:16:51.747Z,2.9
2023-03-05T04:17:51.675Z,2.9
2023-03-05T04:18:51.679Z,2.9
2023-03-05T04:19:51.682Z,2.9
2023-03-05T04:20:51.674Z,2.8
2023-03-05T04:21:51.713Z,2.8
2023-03-05T04:22:51.686Z,2.8
2023-03-05T04:23:51.680Z,2.8
2023-03-05T04:24:51.681Z,2.8
2023-03-05T04:25:51.678Z,2.9
2023-03-05T04:26:51.680Z,2.9
2023-03-05T04:27:51.690Z,2.9
2023-03-05T04:28:51.706Z,2.9
2023-03-05T04:29:51.681Z,2.8
2023-03-05T04:30:51.716Z,2.8
2023-03-05T04:31:51.688Z,2.9
2023-03-05T04:32:51.674Z,2.9
2023-03-05T04:33:51.679Z,2.9
2023-03-05T04:34:51.704Z,2.9
2023-03-05T04:35:51.718Z,3
2023-03-05T04:36:51.677Z,2.9
2023-03-05T04:37:51.678Z,2.9
2023-03-05T04:38:51.678Z,2.9
2023-03-05T04:39:51.670Z,2.9
2023-03-05T04:40:51.673Z,2.9
2023-03-05T04:41:51.680Z,2.9
2023-03-05T04:42:51.692Z,2.9
2023-03-05T04:43:51.676Z,2.8
2023-03-05T04:44:51.677Z,2.8
2023-03-05T04:45:51.673Z,2.8
2023-03-05T04:46:51.733Z,2.9
2023-03-05T04:47:51.665Z,2.9
2023-03-05T04:48:51.675Z,2.9
2023-03-05T04:49:51.668Z,2.9
2023-03-05T04:50:52.144Z,2.9
2023-03-05T04:51:51.674Z,2.9
2023-03-05T04:52:51.707Z,2.9
2023-03-05T04:53:51.672Z,2.9
2023-03-05T04:54:51.664Z,2.9
2023-03-05T04:55:51.731Z,2.9
2023-03-05T04:56:51.675Z,2.8
2023-03-05T04:57:51.683Z,2.8
2023-03-05T04:58:51.676Z,2.8
2023-03-05T04:59:51.669Z,2.7
2023-03-05T05:00:51.719Z,2.8
2023-03-05T05:01:51.698Z,2.8
2023-03-05T05:02:51.750Z,2.8
2023-03-05T05:03:51.662Z,2.7
2023-03-05T05:04:51.678Z,2.8
2023-03-05T05:05:51.670Z,2.8
2023-03-05T05:06:51.694Z,2.7
2023-03-05T05:07:51.684Z,2.5
2023-03-05T05:08:51.675Z,2.4
2023-03-05T05:09:51.677Z,2.4
2023-03-05T05:10:51.682Z,2.3
2023-03-05T05:11:51.680Z,2.2
2023-03-05T05:12:51.670Z,2.3
2023-03-05T05:13:51.679Z,2.3
2023-03-05T05:14:51.675Z,2.3
2023-03-05T05:15:51.700Z,2.4
2023-03-05T05:16:51.661Z,2.5
2023-03-05T05:17:51.680Z,2.3
2023-03-05T05:18:51.677Z,2.3
2023-03-05T05:19:51.671Z,2.3
2023-03-05T05:20:51.658Z,2.3
2023-03-05T05:21:51.669Z,2.3
2023-03-05T05:22:51.682Z,2.3
2023-03-05T05:23:51.667Z,2.4
2023-03-05T05:24:51.673Z,2.4
2023-03-05T05:25:51.688Z,2.5
2023-03-05T05:26:51.666Z,2.4
2023-03-05T05:27:51.661Z,2.4
2023-03-05T05:28:51.663Z,2.4
2023-03-05T05:29:51.665Z,2.4
2023-03-05T05:30:51.666Z,2.3
2023-03-05T05:31:51.717Z,2.3
2023-03-05T05:32:51.691Z,2.3
2023-03-05T05:33:51.671Z,2.4
2023-03-05T05:34:51.669Z,2.3
2023-03-05T05:35:51.737Z,2.4
2023-03-05T05:36:51.668Z,2.4
2023-03-05T05:37:51.685Z,2.3
2023-03-05T05:38:51.694Z,2.3
2023-03-05T05:39:51.663Z,2.3
2023-03-05T05:40:51.679Z,2.3
2023-03-05T05:41:51.680Z,2.4
2023-03-05T05:42:51.667Z,2.4
2023-03-05T05:43:51.671Z,2.4
2023-03-05T05:44:51.703Z,2.4
2023-03-05T05:45:51.868Z,2.3
2023-03-05T05:46:51.662Z,2.3
2023-03-05T05:47:51.682Z,2.3
2023-03-05T05:48:51.685Z,2.3
2023-03-05T05:49:51.678Z,2.3
2023-03-05T05:50:58.205Z,2.4
2023-03-05T05:51:51.677Z,2.4
2023-03-05T05:52:51.677Z,2.4
2023-03-05T05:53:51.675Z,2.4
2023-03-05T05:54:51.669Z,2.3
2023-03-05T05:55:51.669Z,2.3
2023-03-05T05:56:51.678Z,2.4
2023-03-05T05:57:51.674Z,2.4
2023-03-05T05:58:51.687Z,2.4
2023-03-05T05:59:51.683Z,2.3
2023-03-05T06:00:51.683Z,2.3
2023-03-05T06:01:51.776Z,2.2
2023-03-05T06:02:51.768Z,2.3
2023-03-05T06:03:51.689Z,2.3
2023-03-05T06:04:51.857Z,2.2
2023-03-05T06:05:51.672Z,2.2
2023-03-05T06:06:51.678Z,2.1
2023-03-05T06:07:51.687Z,2.2
2023-03-05T06:08:51.700Z,2.2
2023-03-05T06:09:51.674Z,2.3
2023-03-05T06:10:51.667Z,2.2
2023-03-05T06:11:51.784Z,2.3
2023-03-05T06:12:51.668Z,2.2
2023-03-05T06:13:51.668Z,2.2
2023-03-05T06:14:51.680Z,2.2
2023-03-05T06:15:51.664Z,2.4
2023-03-05T06:16:51.744Z,2.3
2023-03-05T06:17:51.684Z,2.3
2023-03-05T06:18:51.693Z,2.3
2023-03-05T06:19:51.679Z,2.3
2023-03-05T06:20:51.661Z,2.4
2023-03-05T06:21:51.667Z,2.4
2023-03-05T06:22:51.689Z,2.3
2023-03-05T06:23:51.666Z,2.3
2023-03-05T06:24:51.726Z,2.3
2023-03-05T06:25:51.674Z,2.3
2023-03-05T06:26:51.652Z,2.3
2023-03-05T06:27:51.691Z,2.4
2023-03-05T06:28:51.702Z,2.4
2023-03-05T06:29:51.716Z,2.4
2023-03-05T06:30:51.725Z,2.4
2023-03-05T06:31:51.669Z,2.4
2023-03-05T06:32:51.676Z,2.4
2023-03-05T06:33:51.688Z,2.4
2023-03-05T06:34:51.686Z,2.5
2023-03-05T06:35:51.694Z,2.4
2023-03-05T06:36:51.655Z,2.4
2023-03-05T06:37:51.689Z,2.4
2023-03-05T06:38:53.300Z,2.5
2023-03-05T06:39:51.688Z,2.4
2023-03-05T06:40:51.674Z,2.4
2023-03-05T06:41:51.684Z,2.5
2023-03-05T06:42:51.680Z,2.6
2023-03-05T06:43:51.685Z,2.6
2023-03-05T06:44:51.670Z,2.6
2023-03-05T06:45:51.681Z,2.5
2023-03-05T06:46:51.668Z,2.7
2023-03-05T06:47:51.788Z,2.6
2023-03-05T06:48:51.669Z,2.6
2023-03-05T06:49:51.664Z,2.6
2023-03-05T06:50:45.677Z,2.6
2023-03-05T06:51:51.728Z,2.6
2023-03-05T06:52:51.687Z,2.6
2023-03-05T06:53:51.659Z,2.6
2023-03-05T06:54:51.667Z,2.6
2023-03-05T06:55:51.665Z,2.6
2023-03-05T06:56:51.721Z,2.7
2023-03-05T06:57:51.672Z,2.7
2023-03-05T06:58:51.828Z,2.7
2023-03-05T06:59:51.662Z,2.7
2023-03-05T07:00:51.721Z,2.6
2023-03-05T07:01:51.686Z,2.6
2023-03-05T07:02:51.714Z,2.7
2023-03-05T07:03:51.672Z,2.7
2023-03-05T07:04:51.660Z,2.7
2023-03-05T07:05:51.660Z,2.8
2023-03-05T07:06:51.689Z,2.8
2023-03-05T07:07:51.651Z,2.8
2023-03-05T07:08:51.654Z,2.9
2023-03-05T07:09:51.660Z,2.8
2023-03-05T07:10:51.697Z,2.9
2023-03-05T07:11:51.655Z,2.9
2023-03-05T07:12:51.661Z,3
2023-03-05T07:13:51.671Z,3
2023-03-05T07:14:51.660Z,3
2023-03-05T07:15:51.733Z,3
2023-03-05T07:16:51.933Z,3
2023-03-05T07:17:51.667Z,3.1
2023-03-05T07:18:51.669Z,3.1
2023-03-05T07:19:51.656Z,3.1
2023-03-05T07:20:51.660Z,3.1
2023-03-05T07:21:51.668Z,3.1
2023-03-05T07:22:51.666Z,3.2
2023-03-05T07:23:51.664Z,3.1
2023-03-05T07:24:51.660Z,3.1
2023-03-05T07:26:51.662Z,3.1
2023-03-05T07:27:51.689Z,3.1
2023-03-05T07:28:51.671Z,3.1
2023-03-05T07:29:51.658Z,3.1
2023-03-05T07:30:51.782Z,3
2023-03-05T07:31:51.669Z,3
2023-03-05T07:32:51.673Z,3
2023-03-05T07:33:51.671Z,3.1
2023-03-05T07:34:51.837Z,3.1
2023-03-05T07:35:51.758Z,3
2023-03-05T07:36:51.655Z,3
2023-03-05T07:37:51.654Z,2.9
2023-03-05T07:38:51.676Z,2.9
2023-03-05T07:39:51.672Z,2.8
2023-03-05T07:40:51.687Z,2.9
2023-03-05T07:41:51.694Z,2.9
2023-03-05T07:42:51.669Z,2.9
2023-03-05T07:43:51.663Z,3
2023-03-05T07:44:51.676Z,2.9
2023-03-05T07:45:51.710Z,2.8
2023-03-05T07:46:51.833Z,2.9
2023-03-05T07:47:52.666Z,3.1
2023-03-05T07:48:51.668Z,3.1
2023-03-05T07:49:51.685Z,3
2023-03-05T07:50:51.718Z,3.1
2023-03-05T07:51:51.680Z,3.1
2023-03-05T07:52:51.672Z,2.9
2023-03-05T07:53:51.675Z,2.9
2023-03-05T07:54:51.677Z,2.9
2023-03-05T07:55:51.679Z,2.8
2023-03-05T07:56:51.683Z,2.9
2023-03-05T07:57:51.662Z,2.8
2023-03-05T07:58:51.683Z,2.8
2023-03-05T07:59:51.695Z,2.7
2023-03-05T08:00:51.673Z,2.7
2023-03-05T08:01:51.695Z,2.8
2023-03-05T08:02:51.722Z,2.9
2023-03-05T08:03:51.703Z,2.9
2023-03-05T08:04:51.676Z,3
2023-03-05T08:05:51.662Z,2.9
2023-03-05T08:06:51.673Z,2.8
2023-03-05T08:07:51.692Z,2.7
2023-03-05T08:08:51.693Z,2.8
2023-03-05T08:09:51.664Z,2.8
2023-03-05T08:10:51.694Z,2.7
2023-03-05T08:11:51.668Z,2.8
2023-03-05T08:12:51.694Z,2.8
2023-03-05T08:13:51.694Z,2.8
2023-03-05T08:14:51.663Z,2.8
2023-03-05T08:15:51.716Z,2.7
2023-03-05T08:16:51.667Z,2.7
2023-03-05T08:17:51.685Z,2.8
2023-03-05T08:18:51.667Z,2.8
2023-03-05T08:19:51.656Z,2.8
2023-03-05T08:20:51.659Z,2.8
2023-03-05T08:21:51.660Z,2.8
2023-03-05T08:22:51.668Z,2.7
2023-03-05T08:23:51.730Z,2.4
2023-03-05T08:24:51.693Z,2.5
2023-03-05T08:25:51.674Z,2.5
2023-03-05T08:26:51.653Z,2.5
2023-03-05T08:27:51.672Z,2.5
2023-03-05T08:28:51.732Z,2.4
2023-03-05T08:29:51.649Z,2.3
2023-03-05T08:30:51.775Z,2.3
2023-03-05T08:31:51.660Z,2.4
2023-03-05T08:32:51.670Z,2.4
2023-03-05T08:33:51.673Z,2.4
2023-03-05T08:34:51.659Z,2.5
2023-03-05T08:35:51.683Z,2.5
2023-03-05T08:36:51.681Z,2.5
2023-03-05T08:37:51.657Z,2.6
2023-03-05T08:38:51.679Z,2.6
2023-03-05T08:39:51.659Z,2.7
2023-03-05T08:40:51.662Z,2.7
2023-03-05T08:41:51.661Z,2.7
2023-03-05T08:42:51.670Z,2.6
2023-03-05T08:43:51.694Z,2.7
2023-03-05T08:44:51.670Z,2.7
2023-03-05T08:45:51.662Z,2.6
2023-03-05T08:46:51.752Z,2.7
2023-03-05T08:47:51.660Z,2.7
2023-03-05T08:48:51.673Z,2.5
2023-03-05T08:49:51.671Z,2.6
2023-03-05T08:50:51.661Z,2.6
2023-03-05T08:51:51.669Z,2.5
2023-03-05T08:52:51.672Z,2.6
2023-03-05T08:53:51.658Z,2.7
2023-03-05T08:54:51.653Z,2.6
2023-03-05T08:55:51.665Z,2.6
2023-03-05T08:56:51.656Z,2.4
2023-03-05T08:57:51.655Z,2.2
2023-03-05T08:58:51.663Z,2.1
2023-03-05T08:59:51.669Z,2.1
2023-03-05T09:00:51.677Z,2.1
2023-03-05T09:01:51.696Z,2.1
2023-03-05T09:02:51.723Z,2.2
2023-03-05T09:03:51.660Z,2.1
2023-03-05T09:04:51.665Z,2.1
2023-03-05T09:05:51.657Z,2.2
2023-03-05T09:06:51.681Z,2
2023-03-05T09:07:51.692Z,2
2023-03-05T09:08:51.664Z,2.1
2023-03-05T09:09:51.667Z,2.2
2023-03-05T09:10:51.744Z,2.2
2023-03-05T09:11:51.777Z,2.3
2023-03-05T09:12:51.843Z,2.3
2023-03-05T09:13:51.897Z,2.1
2023-03-05T09:14:51.813Z,2.3
2023-03-05T09:15:52.056Z,2.2
2023-03-05T09:16:51.930Z,2.3
2023-03-05T09:17:51.652Z,2.1
2023-03-05T09:18:51.664Z,2.2
2023-03-05T09:19:51.662Z,2.2
2023-03-05T09:20:51.647Z,2.2
2023-03-05T09:21:51.686Z,2.4
2023-03-05T09:22:51.693Z,2.3
2023-03-05T09:23:51.665Z,2.3
2023-03-05T09:24:51.673Z,2.3
2023-03-05T09:25:51.665Z,2.3
2023-03-05T09:26:51.675Z,2.4
2023-03-05T09:27:51.647Z,2.5
2023-03-05T09:28:51.664Z,2.4
2023-03-05T09:29:51.647Z,2.3
2023-03-05T09:30:51.652Z,2.3
2023-03-05T09:31:51.737Z,2.4
2023-03-05T09:32:51.656Z,2.3
2023-03-05T09:33:51.658Z,2.2
2023-03-05T09:35:51.712Z,2.1
2023-03-05T09:36:51.691Z,2.2
2023-03-05T09:37:51.661Z,2.2
2023-03-05T09:38:51.661Z,2
2023-03-05T09:39:51.685Z,2
2023-03-05T09:40:51.657Z,2.1
2023-03-05T09:41:51.668Z,2.1
2023-03-05T09:42:51.648Z,2.2
2023-03-05T09:43:51.668Z,2.1
2023-03-05T09:44:51.749Z,2.1
2023-03-05T09:45:51.758Z,2.2
2023-03-05T09:47:51.685Z,2.1
2023-03-05T09:48:51.688Z,2.1
2023-03-05T09:49:51.674Z,2.1
2023-03-05T09:50:51.659Z,2.2
2023-03-05T09:51:51.664Z,2.2
2023-03-05T09:52:51.653Z,2.2
2023-03-05T09:53:51.657Z,2.2
2023-03-05T09:54:51.678Z,2.2
2023-03-05T09:55:51.655Z,2.1
2023-03-05T09:56:51.661Z,2
2023-03-05T09:57:51.652Z,2.2
2023-03-05T09:58:51.650Z,2.2
2023-03-05T09:59:51.713Z,2.3
2023-03-05T10:00:51.650Z,2.4
2023-03-05T10:01:51.656Z,2.3
2023-03-05T10:02:51.665Z,2.3
2023-03-05T10:03:51.699Z,2.5
2023-03-05T10:04:51.653Z,2.3
2023-03-05T10:05:51.678Z,2.4
2023-03-05T10:06:51.673Z,2.2
2023-03-05T10:07:51.659Z,2.2
2023-03-05T10:08:51.654Z,2.4
2023-03-05T10:09:51.658Z,2.3
2023-03-05T10:10:51.668Z,2.4
2023-03-05T10:11:51.738Z,2.4
2023-03-05T10:12:51.712Z,2.2
2023-03-05T10:13:51.680Z,2.4
2023-03-05T10:14:51.659Z,2.5
2023-03-05T10:15:51.716Z,2.5
2023-03-05T10:16:51.789Z,2.6
2023-03-05T10:17:51.656Z,2.6
2023-03-05T10:18:51.658Z,2.3
2023-03-05T10:19:51.678Z,2.2
2023-03-05T10:20:51.655Z,2.4
2023-03-05T10:21:51.657Z,2.4
2023-03-05T10:22:51.661Z,2.6
2023-03-05T10:23:51.660Z,2.8
2023-03-05T10:24:51.663Z,2.8
2023-03-05T10:25:51.639Z,2.6
2023-03-05T10:26:51.740Z,2.6
2023-03-05T10:27:54.067Z,2.7
2023-03-05T10:28:51.657Z,2.6
2023-03-05T10:29:51.660Z,2.6
2023-03-05T10:30:51.674Z,2.4
2023-03-05T10:31:51.707Z,2.3
2023-03-05T10:32:51.763Z,2.3
2023-03-05T10:33:51.689Z,2.3
2023-03-05T10:34:51.642Z,2.2
2023-03-05T10:35:51.679Z,2.3
2023-03-05T10:36:51.656Z,2.4
2023-03-05T10:37:51.671Z,2.4
2023-03-05T10:38:51.815Z,2.3
2023-03-05T10:39:51.672Z,2
2023-03-05T10:40:51.658Z,2
2023-03-05T10:41:51.660Z,1.9
2023-03-05T10:42:51.651Z,1.9
2023-03-05T10:43:51.682Z,1.9
2023-03-05T10:44:51.664Z,1.9
2023-03-05T10:45:51.679Z,2
2023-03-05T10:46:51.660Z,2.1
2023-03-05T10:47:51.682Z,2.2
2023-03-05T10:48:51.651Z,2.4
2023-03-05T10:49:51.653Z,2.5
2023-03-05T10:50:51.667Z,2.6
2023-03-05T10:51:51.651Z,2.7
2023-03-05T10:52:51.686Z,2.8
2023-03-05T10:53:51.648Z,2.8
2023-03-05T10:54:51.661Z,3
2023-03-05T10:55:51.659Z,3.1
2023-03-05T10:56:51.649Z,3.2
2023-03-05T10:57:51.661Z,3.3
2023-03-05T10:58:51.678Z,3.4
2023-03-05T10:59:51.719Z,3.5
2023-03-05T11:00:51.664Z,3.5
2023-03-05T11:01:51.654Z,3.6
2023-03-05T11:02:51.664Z,3.5
2023-03-05T11:03:51.725Z,3.5
2023-03-05T11:04:51.696Z,3.7
2023-03-05T11:05:51.666Z,3.7
2023-03-05T11:06:51.671Z,3.7
2023-03-05T11:07:51.671Z,3.9
2023-03-05T11:08:51.642Z,4.1
2023-03-05T11:09:51.650Z,4.2
2023-03-05T11:10:51.657Z,4.2
2023-03-05T11:11:51.650Z,4.3
2023-03-05T11:12:51.689Z,4.4
2023-03-05T11:13:51.651Z,4.3
2023-03-05T11:14:51.666Z,4.4
2023-03-05T11:15:51.761Z,4.4
2023-03-05T11:16:51.661Z,4.4
2023-03-05T11:17:51.637Z,4.4
2023-03-05T11:18:51.681Z,4.5
2023-03-05T11:20:51.721Z,4.8
2023-03-05T11:21:51.632Z,5
2023-03-05T11:22:51.659Z,4.9
2023-03-05T11:23:51.645Z,4.8
2023-03-05T11:24:51.651Z,4.6
2023-03-05T11:25:51.648Z,4.6
2023-03-05T11:26:51.652Z,4.8
2023-03-05T11:27:54.551Z,4.8
2023-03-05T11:28:51.663Z,4.9
2023-03-05T11:29:51.655Z,4.9
2023-03-05T11:30:51.712Z,4.8
2023-03-05T11:31:51.637Z,4.5
2023-03-05T11:32:51.654Z,4.4
2023-03-05T11:33:51.654Z,4.5
2023-03-05T11:34:51.651Z,4.5
2023-03-05T11:35:51.741Z,4.5
2023-03-05T11:36:51.655Z,4.4
2023-03-05T11:37:51.650Z,4.3
2023-03-05T11:38:51.647Z,4.3
2023-03-05T11:39:51.669Z,4.3
2023-03-05T11:40:51.639Z,4.3
2023-03-05T11:41:51.650Z,4.5
2023-03-05T11:42:51.685Z,4.6
2023-03-05T11:43:51.640Z,4.7
2023-03-05T11:44:51.653Z,4.5
2023-03-05T11:45:51.742Z,4.5
2023-03-05T11:46:51.657Z,4.6
2023-03-05T11:47:51.699Z,4.5
2023-03-05T11:48:51.662Z,4.6
2023-03-05T11:49:51.665Z,4.6
2023-03-05T11:50:51.651Z,4.5
2023-03-05T11:51:51.639Z,4.7
2023-03-05T11:52:51.647Z,4.8
2023-03-05T11:53:51.653Z,4.8
2023-03-05T11:54:51.666Z,4.8
2023-03-05T11:55:51.676Z,4.9
2023-03-05T11:56:51.641Z,4.9
2023-03-05T11:57:51.711Z,4.8
2023-03-05T11:58:51.655Z,4.8
2023-03-05T11:59:51.642Z,4.7
2023-03-05T12:00:51.667Z,4.6
2023-03-05T12:01:51.668Z,4.8
2023-03-05T12:02:51.767Z,4.7
2023-03-05T12:03:51.706Z,4.7
2023-03-05T12:04:51.650Z,4.9
2023-03-05T12:05:51.704Z,4.9
2023-03-05T12:06:51.654Z,4.9
2023-03-05T12:07:51.702Z,5.1
2023-03-05T12:08:51.671Z,4.8
2023-03-05T12:09:51.968Z,4.6
2023-03-05T12:10:51.654Z,4.7
2023-03-05T12:11:51.657Z,4.6
2023-03-05T12:12:51.889Z,4.6
2023-03-05T12:13:51.646Z,4.7
2023-03-05T12:14:51.713Z,4.8
2023-03-05T12:15:51.676Z,4.9
2023-03-05T12:16:51.644Z,5.2
2023-03-05T12:17:51.659Z,5
2023-03-05T12:18:51.651Z,5.1
2023-03-05T12:19:51.650Z,5.2
2023-03-05T12:20:51.765Z,5.1
2023-03-05T12:21:51.662Z,5.2
2023-03-05T12:22:51.668Z,5.2
2023-03-05T12:23:51.659Z,5.4
2023-03-05T12:24:51.671Z,5.5
2023-03-05T12:25:51.675Z,5.5
2023-03-05T12:26:51.668Z,5.6
2023-03-05T12:27:51.663Z,5.6
2023-03-05T12:28:51.663Z,5.7
2023-03-05T12:29:51.723Z,5.7
2023-03-05T12:30:51.649Z,5.9
2023-03-05T12:31:52.036Z,5.8
2023-03-05T12:32:51.654Z,5.6
2023-03-05T12:33:51.669Z,5.4
2023-03-05T12:34:51.662Z,5.4
2023-03-05T12:35:51.759Z,5.2
2023-03-05T12:36:51.667Z,5
2023-03-05T12:37:51.686Z,5
2023-03-05T12:38:51.669Z,5.2
2023-03-05T12:39:51.684Z,5.3
2023-03-05T12:40:51.650Z,5.3
2023-03-05T12:41:51.645Z,5.3
2023-03-05T12:42:51.647Z,5.2
2023-03-05T12:43:51.674Z,5.2
2023-03-05T12:44:51.665Z,5.3
2023-03-05T12:45:51.658Z,5.3
2023-03-05T12:46:51.732Z,5.3
2023-03-05T12:47:51.654Z,5.3
2023-03-05T12:48:51.787Z,5.1
2023-03-05T12:49:51.660Z,4.9
2023-03-05T12:50:51.687Z,5
2023-03-05T12:51:51.677Z,4.9
2023-03-05T12:52:51.677Z,4.9
2023-03-05T12:53:51.669Z,4.9
2023-03-05T12:54:51.669Z,4.8
2023-03-05T12:55:51.665Z,4.9
2023-03-05T12:56:51.702Z,4.9
2023-03-05T12:57:51.654Z,4.8
2023-03-05T12:58:51.647Z,4.7
2023-03-05T12:59:51.655Z,4.8
2023-03-05T13:00:51.772Z,4.8
2023-03-05T13:01:51.690Z,4.8
2023-03-05T13:02:51.676Z,4.7
2023-03-05T13:03:51.752Z,4.7
2023-03-05T13:04:51.692Z,4.8
2023-03-05T13:05:51.660Z,4.8
2023-03-05T13:06:51.662Z,4.8
2023-03-05T13:07:51.685Z,4.8
2023-03-05T13:08:51.713Z,4.9
2023-03-05T13:09:51.650Z,5
2023-03-05T13:10:51.647Z,5
2023-03-05T13:11:52.180Z,5.2
2023-03-05T13:12:51.653Z,4.9
2023-03-05T13:13:51.671Z,4.9
2023-03-05T13:14:51.656Z,4.9
2023-03-05T13:15:51.662Z,4.9
2023-03-05T13:16:51.645Z,4.8
2023-03-05T13:17:51.655Z,4.6
2023-03-05T13:18:51.714Z,4.7
2023-03-05T13:19:51.644Z,4.7
2023-03-05T13:20:51.654Z,4.7
2023-03-05T13:21:51.649Z,4.7
2023-03-05T13:22:51.677Z,4.7
2023-03-05T13:23:51.652Z,4.7
2023-03-05T13:24:51.637Z,4.7
2023-03-05T13:25:51.649Z,4.7
2023-03-05T13:26:51.655Z,4.8
2023-03-05T13:27:51.648Z,4.7
2023-03-05T13:28:51.653Z,4.5
2023-03-05T13:29:51.655Z,4.4
2023-03-05T13:30:51.646Z,4.5
2023-03-05T13:31:51.713Z,4.7
2023-03-05T13:32:51.651Z,4.8
2023-03-05T13:33:51.640Z,4.5
2023-03-05T13:34:51.660Z,4.3
2023-03-05T13:35:53.874Z,4.4
2023-03-05T13:36:51.654Z,4.3
2023-03-05T13:37:51.650Z,4.2
2023-03-05T13:38:51.668Z,4.2
2023-03-05T13:39:51.648Z,4.3
2023-03-05T13:40:51.657Z,4.2
2023-03-05T13:41:51.645Z,4.2
2023-03-05T13:42:51.641Z,4
2023-03-05T13:43:51.637Z,4.2
2023-03-05T13:44:51.650Z,4.3
2023-03-05T13:45:51.770Z,4.3
2023-03-05T13:46:51.662Z,4.2
2023-03-05T13:47:51.633Z,4
2023-03-05T13:48:51.666Z,4
2023-03-05T13:49:51.647Z,3.9
2023-03-05T13:50:51.650Z,3.9
2023-03-05T13:51:51.641Z,4
2023-03-05T13:52:51.666Z,4.1
2023-03-05T13:53:51.673Z,4
2023-03-05T13:54:51.654Z,4
2023-03-05T13:55:51.706Z,3.9
2023-03-05T13:56:51.672Z,3.8
2023-03-05T13:57:51.649Z,3.9
2023-03-05T13:58:51.636Z,3.9